Time,TemperatureF,DewpointF,PressureIn,WindDirection,WindDirectionDegrees,WindSpeedMPH,WindSpeedGustMPH,Humidity,HourlyPrecipIn,Conditions,Clouds,dailyrainin,SoftwareType,DateUTC
2013-08-07 00:01:00,59.0,-99.9,-100.00,NW,318,1.0,3.0,-999,0.00,,,-99.99,,2013-08-07 04:01:00,
2013-08-07 00:11:00,59.0,-99.9,-100.00,NW,325,2.0,4.0,-999,0.00,,,-99.99,,2013-08-07 04:11:00,
2013-08-07 00:21:00,59.0,59.0,-100.00,NW,323,2.0,4.0,100,0.00,,,-99.99,,2013-08-07 04:21:00,
2013-08-07 00:52:00,-999.0,-99.9,-100.00,NNE,31,0.0,0.0,-999,-99.99,,,-99.99,,2013-08-07 04:52:00,
2013-08-07 01:11:00,-999.0,-99.9,-100.00,NNW,328,3.0,4.0,-999,-99.99,,,-99.99,,2013-08-07 05:11:00,
2013-08-07 01:32:00,-999.0,-99.9,-100.00,NW,322,2.0,4.0,-999,-99.99,,,-99.99,,2013-08-07 05:32:00,
2013-08-07 01:52:00,-999.0,-99.9,-100.00,NW,326,2.0,3.0,-999,-99.99,,,-99.99,,2013-08-07 05:52:00,
2013-08-07 02:32:00,56.0,-99.9,-100.00,NNW,328,0.0,0.0,-999,0.00,,,-99.99,,2013-08-07 06:32:00,
2013-08-07 02:43:00,-999.0,-99.9,-100.00,NW,326,1.0,3.0,-999,0.00,,,-99.99,,2013-08-07 06:43:00,
2013-08-07 02:52:00,-999.0,-99.9,-100.00,North,11,0.0,2.0,-999,-99.99,,,-99.99,,2013-08-07 06:52:00,
2013-08-07 03:01:00,56.0,-99.9,-100.00,North,4,0.0,2.0,-999,0.00,,,-99.99,,2013-08-07 07:01:00,
2013-08-07 03:12:00,-999.0,-99.9,-100.00,NW,318,0.0,2.0,-999,-99.99,,,-99.99,,2013-08-07 07:12:00,
2013-08-07 03:22:00,56.0,-99.9,-100.00,West,271,0.0,2.0,-999,0.00,,,-99.99,,2013-08-07 07:22:00,
2013-08-07 03:33:00,56.0,-99.9,-100.00,WSW,243,0.0,0.0,-999,0.00,,,-99.99,,2013-08-07 07:33:00,
2013-08-07 03:44:00,56.0,-99.9,-100.00,West,263,0.0,2.0,-999,0.00,,,-99.99,,2013-08-07 07:44:00,
2013-08-07 04:11:00,56.0,56.0,-100.00,West,264,0.0,2.0,100,0.00,,,-99.99,,2013-08-07 08:11:00,
2013-08-07 04:22:00,55.0,-99.9,-100.00,NW,319,1.0,3.0,-999,0.00,,,-99.99,,2013-08-07 08:22:00,
2013-08-07 04:32:00,55.0,-99.9,-100.00,West,264,0.0,2.0,-999,0.00,,,-99.99,,2013-08-07 08:32:00,
2013-08-07 04:44:00,55.0,-99.9,-100.00,South,188,0.0,0.0,-999,0.00,,,-99.99,,2013-08-07 08:44:00,
2013-08-07 05:32:00,55.0,-99.9,-100.00,NW,309,0.0,2.0,-999,0.00,,,-99.99,,2013-08-07 09:32:00,
2013-08-07 05:43:00,54.0,-99.9,-100.00,NE,51,0.0,0.0,-999,0.00,,,-99.99,,2013-08-07 09:43:00,
2013-08-07 05:54:00,-999.0,-99.9,-100.00,NE,41,0.0,0.0,-999,-99.99,,,-99.99,,2013-08-07 09:54:00,
2013-08-07 06:52:00,-999.0,-99.9,-100.00,WSW,247,0.0,1.0,-999,-99.99,,,-99.99,,2013-08-07 10:52:00,
2013-08-07 07:22:00,59.0,56.0,-100.00,NW,305,0.0,2.0,90,0.00,,,-99.99,,2013-08-07 11:22:00,
2013-08-07 07:32:00,60.0,56.0,-100.00,NW,306,0.0,2.0,88,0.00,,,-99.99,,2013-08-07 11:32:00,
2013-08-07 07:43:00,60.0,55.0,-100.00,WNW,302,0.0,2.0,86,0.00,,,-99.99,,2013-08-07 11:43:00,
2013-08-07 07:52:00,60.0,55.0,-100.00,WNW,296,1.0,3.0,84,0.00,,,-99.99,,2013-08-07 11:52:00,
2013-08-07 08:02:00,62.0,56.0,-100.00,NW,325,1.0,2.0,81,0.00,,,-99.99,,2013-08-07 12:02:00,
2013-08-07 08:12:00,-999.0,-99.9,-100.00,NNW,329,1.0,2.0,-999,-99.99,,,-99.99,,2013-08-07 12:12:00,
2013-08-07 08:22:00,62.0,56.0,-100.00,NNW,329,1.0,2.0,83,0.00,,,-99.99,,2013-08-07 12:22:00,
2013-08-07 08:33:00,62.0,56.0,-100.00,NW,323,0.0,2.0,80,0.00,,,-99.99,,2013-08-07 12:33:00,
2013-08-07 08:43:00,63.0,55.0,-100.00,NW,320,0.0,1.0,75,0.00,,,-99.99,,2013-08-07 12:43:00,
2013-08-07 08:53:00,-999.0,-99.9,-100.00,NNW,330,0.0,1.0,-999,-99.99,,,-99.99,,2013-08-07 12:53:00,
2013-08-07 09:22:00,67.0,58.0,-100.00,NW,320,1.0,2.0,73,-99.99,,,-99.99,,2013-08-07 13:22:00,
2013-08-07 09:32:00,-999.0,-99.9,-100.00,NNW,328,1.0,3.0,-999,-99.99,,,-99.99,,2013-08-07 13:32:00,
2013-08-07 10:12:00,-999.0,-99.9,-100.00,NNW,337,1.0,3.0,-999,-99.99,,,-99.99,,2013-08-07 14:12:00,
2013-08-07 10:22:00,69.0,60.0,-100.00,NNW,337,1.0,3.0,71,0.00,,,-99.99,,2013-08-07 14:22:00,
2013-08-07 11:22:00,74.0,-99.9,-100.00,NNW,332,1.0,2.0,-999,0.00,,,-99.99,,2013-08-07 15:22:00,
2013-08-07 11:33:00,73.0,62.0,-100.00,NW,322,2.0,3.0,68,0.00,,,-99.99,,2013-08-07 15:33:00,
2013-08-07 11:43:00,74.0,62.0,-100.00,NW,322,1.0,4.0,68,0.00,,,-99.99,,2013-08-07 15:43:00,
2013-08-07 12:33:00,78.0,59.0,-100.00,East,89,2.0,6.0,52,0.00,,,-99.99,,2013-08-07 16:33:00,
2013-08-07 12:43:00,77.0,58.0,-100.00,ENE,64,3.0,7.0,53,0.00,,,-99.99,,2013-08-07 16:43:00,
2013-08-07 13:11:00,-999.0,60.0,-100.00,East,85,4.0,8.0,55,0.00,,,-99.99,,2013-08-07 17:11:00,
2013-08-07 13:43:00,78.0,59.0,-100.00,ESE,103,5.0,9.0,52,0.00,,,-99.99,,2013-08-07 17:43:00,
2013-08-07 13:52:00,-999.0,-99.9,-100.00,East,96,6.0,13.0,-999,0.00,,,-99.99,,2013-08-07 17:52:00,
2013-08-07 14:32:00,76.0,59.0,-100.00,East,95,5.0,10.0,55,0.00,,,-99.99,,2013-08-07 18:32:00,
2013-08-07 15:22:00,-999.0,50.0,-100.00,SE,124,7.0,14.0,36,0.00,,,-99.99,,2013-08-07 19:22:00,
2013-08-07 15:32:00,78.0,52.0,-100.00,ESE,120,6.0,15.0,39,0.00,,,-99.99,,2013-08-07 19:32:00,
2013-08-07 15:44:00,78.0,51.0,-100.00,SE,130,6.0,11.0,38,0.00,,,-99.99,,2013-08-07 19:44:00,
2013-08-07 15:52:00,77.0,49.0,-100.00,SE,128,7.0,14.0,38,0.00,,,-99.99,,2013-08-07 19:52:00,
2013-08-07 16:33:00,76.0,51.0,-100.00,ESE,123,6.0,14.0,41,0.00,,,-99.99,,2013-08-07 20:33:00,
2013-08-07 16:43:00,76.0,49.0,-100.00,SE,127,7.0,13.0,39,0.00,,,-99.99,,2013-08-07 20:43:00,
2013-08-07 17:22:00,75.0,51.0,-100.00,SE,138,9.0,17.0,42,0.00,,,-99.99,,2013-08-07 21:22:00,
2013-08-07 17:43:00,-999.0,-99.9,-100.00,SE,134,7.0,15.0,-999,-99.99,,,-99.99,,2013-08-07 21:43:00,
2013-08-07 18:01:00,73.0,54.0,-100.00,SE,134,6.0,12.0,51,0.00,,,-99.99,,2013-08-07 22:01:00,
2013-08-07 18:12:00,73.0,54.0,-100.00,SE,140,6.0,13.0,50,0.00,,,-99.99,,2013-08-07 22:12:00,
2013-08-07 18:22:00,-999.0,-99.9,-100.00,SE,143,8.0,16.0,-999,-99.99,,,-99.99,,2013-08-07 22:22:00,
2013-08-07 18:32:00,73.0,55.0,-100.00,SE,131,7.0,12.0,54,0.00,,,-99.99,,2013-08-07 22:32:00,
2013-08-07 19:01:00,70.0,56.0,-100.00,SE,127,6.0,13.0,60,0.00,,,-99.99,,2013-08-07 23:01:00,
2013-08-07 20:32:00,68.0,58.0,-100.00,SE,133,6.0,13.0,69,0.00,,,-99.99,,2013-08-08 00:32:00,
2013-08-07 20:43:00,68.0,58.0,-100.00,SE,124,4.0,9.0,71,0.00,,,-99.99,,2013-08-08 00:43:00,
2013-08-07 20:52:00,68.0,58.0,-100.00,SE,133,6.0,11.0,70,0.00,,,-99.99,,2013-08-08 00:52:00,
2013-08-07 21:02:00,68.0,58.0,-100.00,SE,138,6.0,12.0,69,0.00,,,-99.99,,2013-08-08 01:02:00,
2013-08-07 21:22:00,68.0,57.0,-100.00,SE,143,6.0,11.0,69,0.00,,,-99.99,,2013-08-08 01:22:00,
2013-08-07 21:43:00,68.0,56.0,-100.00,SE,145,6.0,10.0,67,0.00,,,-99.99,,2013-08-08 01:43:00,
2013-08-07 22:22:00,67.0,55.0,-100.00,SE,141,6.0,11.0,64,0.00,,,-99.99,,2013-08-08 02:22:00,
2013-08-07 22:43:00,67.0,55.0,-100.00,SSE,154,6.0,10.0,65,0.00,,,-99.99,,2013-08-08 02:43:00,
2013-08-07 23:22:00,67.0,55.0,-100.00,SSE,164,4.0,9.0,66,0.00,,,-99.99,,2013-08-08 03:22:00,
2013-08-07 23:32:00,66.0,55.0,-100.00,SSE,164,4.0,9.0,66,0.00,,,-99.99,,2013-08-08 03:32:00,